This is the latest recevied weather packets stored in our database for station/object N2XP-3. If no packets are shown the sender has not sent any weather packets the latest 10 day(s).
| Time | Temp. | Humidity | Pressure | Rain* | Wind** | Luminosity | Snow |
|---|---|---|---|---|---|---|---|
| 1777465369 | 20° C | 48% | 1013.3 hPa | 0 mm | 0 m/s | - | - |
| 1777465175 | 19.44° C | 51% | 1013.6 hPa | 0 mm | 0 m/s | - | - |
| 1777465058 | 19.44° C | 51% | 1013.6 hPa | 0 mm | 0 m/s | - | - |
| 1777464919 | 18.33° C | 54% | 1013.4 hPa | 0 mm | 0.45 m/s, 207° | - | - |
| 1777464760 | 16.67° C | 57% | 1013.3 hPa | 0 mm | 0 m/s | - | - |
| 1777464758 | 18.33° C | 54% | 1013.4 hPa | 0 mm | 0.45 m/s, 207° | - | - |
| 1777464498 | 16.67° C | 57% | 1013.3 hPa | 0 mm | 0 m/s | - | - |
| 1777464457 | 16.67° C | 57% | 1013.3 hPa | 0 mm | 0 m/s | - | - |
| 1777464394 | 15.56° C | 62% | 1013.3 hPa | 0 mm | 0 m/s | - | - |
| 1777464146 | 15.56° C | 62% | 1013.3 hPa | 0 mm | 0 m/s | - | - |
| 1777463846 | 13.89° C | 64% | 1013.3 hPa | 0 mm | 0 m/s | - | - |
| 1777463781 | 13.89° C | 64% | 1013.6 hPa | 0 mm | 0.45 m/s, 255° | - | - |
| 1777463580 | 13.89° C | 64% | 1013.6 hPa | 0 mm | 0.45 m/s, 255° | - | - |
| 1777463543 | 13.89° C | 64% | 1013.6 hPa | 0 mm | 0.45 m/s, 255° | - | - |
| 1777463225 | 13.33° C | 66% | 1013.6 hPa | 0 mm | 0 m/s | - | - |
| 1777462921 | 12.78° C | 68% | 1013.4 hPa | 0 mm | 0 m/s | - | - |
| 1777462622 | 12.78° C | 70% | 1013.3 hPa | 0 mm | 0 m/s | - | - |
| 1777462312 | 12.22° C | 72% | 1013.4 hPa | 0 mm | 0 m/s | - | - |
| 1777462013 | 12.22° C | 76% | 1013.4 hPa | 0 mm | 0 m/s | - | - |
| 1777461712 | 11.67° C | 79% | 1013.4 hPa | 0 mm | 0 m/s | - | - |
| 1777461572 | 11.11° C | 81% | 1013.6 hPa | 0 mm | 0 m/s | - | - |
| 1777461483 | 11.11° C | 81% | 1013.6 hPa | 0 mm | 0 m/s | - | - |
| 1777461403 | 11.11° C | 81% | 1013.6 hPa | 0 mm | 0 m/s | - | - |
| 1777460947 | 10° C | 81% | 1013.6 hPa | 0 mm | 0 m/s | - | - |
| 1777460800 | 10° C | 81% | 1013.6 hPa | 0 mm | 0 m/s | - | - |
* Rain latest hour (hover to see other rain measurements)
** Current wind speed in m/s (hover to see current wind gust speed)